aviador You're here:

RJCK Decoded Metar

KUSHIRO AIRPORT in JAPAN
Report Time2017-07-22 10:29:00
UTC Time2017-07-22 10:40:51
Flight Rules lifr LIFR
WindVRB at 01 kt
Visibility0600 m
Phenomena:Fog
Clouds:N/A
Ceiling100 ft
Temp18°C (ISA +4)
Dew Point18°C (100% RH)
QNH1010 hPa
Density Alt1,125 ft
Elevation322 ft
Report Wrong Elevation
Raw Report
RJCK 221029Z VRB01KT 0600 R17/1100VP2000U FG VV001 18/18 Q1010 RMK
A2982=

Extra information for RJCK:More info

Metar Taf Metar & Taf Last 4 Metars F.Rules Stats Wind Profile Meteogram Temp Stats Airport Information Weather charts Add Link Nearby VenuesMetar ALERT Operation Metar Decoded Social comments